createdAt,value
2023-01-04T00:03:03.942Z,9.66
2023-01-04T00:08:05.642Z,9.71
2023-01-04T00:13:07.190Z,9.75
2023-01-04T00:18:08.730Z,9.82
2023-01-04T00:23:10.281Z,9.82
2023-01-04T00:28:11.963Z,9.82
2023-01-04T00:33:13.547Z,9.97
2023-01-04T00:38:15.102Z,9.91
2023-01-04T00:43:16.657Z,9.90
2023-01-04T00:48:18.192Z,10.00
2023-01-04T00:53:19.759Z,10.13
2023-01-04T00:58:21.295Z,10.15
2023-01-04T01:03:22.979Z,10.10
2023-01-04T01:08:24.616Z,10.27
2023-01-04T01:13:26.176Z,10.24
2023-01-04T01:18:29.454Z,10.24
2023-01-04T01:23:31.057Z,9.98
2023-01-04T01:28:34.878Z,9.66
2023-01-04T01:33:41.085Z,9.44
2023-01-04T01:38:43.392Z,9.45
2023-01-04T01:43:51.218Z,9.40
2023-01-04T01:49:12.951Z,9.35
2023-01-04T01:54:20.935Z,9.35
2023-01-04T01:59:22.845Z,9.32
2023-01-04T02:04:24.732Z,9.26
2023-01-04T02:09:26.280Z,9.33
2023-01-04T02:14:28.563Z,9.31
2023-01-04T02:20:00.464Z,9.35
2023-01-04T02:25:17.157Z,9.45
2023-01-04T02:30:38.612Z,9.45
2023-01-04T02:35:54.277Z,9.52
2023-01-04T02:41:05.625Z,9.56
2023-01-04T02:46:35.726Z,9.87
2023-01-04T02:51:38.683Z,10.00
2023-01-04T02:56:46.289Z,10.07
2023-01-04T03:02:10.654Z,10.13
2023-01-04T03:07:30.535Z,10.26
2023-01-04T03:12:38.545Z,10.25
2023-01-04T03:17:46.668Z,10.19
2023-01-04T03:23:10.110Z,10.32
2023-01-04T03:28:15.042Z,10.50
2023-01-04T03:33:18.047Z,10.71
2023-01-04T03:38:28.240Z,10.69
2023-01-04T03:43:40.995Z,10.85
2023-01-04T03:48:53.065Z,10.89
2023-01-04T03:53:57.067Z,11.07
2023-01-04T03:58:59.682Z,11.05
2023-01-04T04:04:01.387Z,11.01
2023-01-04T04:09:03.815Z,10.99
2023-01-04T04:14:06.136Z,11.12
2023-01-04T04:19:09.065Z,11.14
2023-01-04T04:24:20.412Z,10.80
2023-01-04T04:29:24.209Z,10.79
2023-01-04T04:34:25.800Z,10.65
2023-01-04T04:39:27.318Z,10.82
2023-01-04T04:44:28.935Z,10.77
2023-01-04T04:49:30.547Z,10.85
2023-01-04T04:54:32.105Z,11.00
2023-01-04T04:59:33.696Z,11.12
2023-01-04T05:04:35.216Z,11.23
2023-01-04T05:09:36.791Z,11.23
2023-01-04T05:14:38.541Z,11.34
2023-01-04T05:19:40.088Z,11.34
2023-01-04T05:24:41.699Z,11.42
2023-01-04T05:29:43.297Z,11.41
2023-01-04T05:34:44.934Z,11.51
2023-01-04T05:39:46.464Z,11.48
2023-01-04T05:44:48.002Z,11.52
2023-01-04T05:49:49.783Z,11.61
2023-01-04T05:54:51.334Z,11.63
2023-01-04T05:59:53.080Z,11.59
2023-01-04T06:04:58.801Z,11.66
2023-01-04T06:10:01.408Z,11.76
2023-01-04T06:15:03.287Z,11.70
2023-01-04T06:20:07.202Z,11.68
2023-01-04T06:25:09.511Z,11.63
2023-01-04T06:30:11.505Z,11.83
2023-01-04T06:35:13.054Z,11.74
2023-01-04T06:40:14.804Z,11.79
2023-01-04T06:45:16.427Z,11.95
2023-01-04T06:50:18.018Z,11.88
2023-01-04T06:55:19.688Z,11.99
2023-01-04T07:00:21.841Z,11.93
2023-01-04T07:05:23.959Z,11.84
2023-01-04T07:10:25.558Z,11.89
2023-01-04T07:15:38.980Z,12.01
2023-01-04T07:20:41.853Z,12.15
2023-01-04T07:25:43.454Z,12.22
2023-01-04T07:30:45.020Z,12.21
2023-01-04T07:35:46.602Z,12.19
2023-01-04T07:40:55.945Z,12.33
2023-01-04T07:45:58.611Z,12.35
2023-01-04T07:51:00.565Z,12.34
2023-01-04T07:56:02.136Z,12.28
2023-01-04T08:01:14.557Z,12.35
2023-01-04T08:06:16.960Z,12.50
2023-01-04T08:11:20.397Z,12.63
2023-01-04T08:16:24.677Z,12.55
2023-01-04T08:21:27.720Z,12.58
2023-01-04T08:26:29.940Z,12.54
2023-01-04T08:31:33.288Z,12.62
2023-01-04T08:36:36.855Z,12.55
2023-01-04T08:41:57.393Z,12.57
2023-01-04T08:47:00.765Z,12.57
2023-01-04T08:52:02.468Z,12.79
2023-01-04T08:57:04.235Z,12.75
2023-01-04T09:02:19.608Z,12.83
2023-01-04T09:07:21.212Z,12.91
2023-01-04T09:12:23.546Z,12.87
2023-01-04T09:17:25.220Z,13.10
2023-01-04T09:22:26.946Z,13.07
2023-01-04T09:27:31.279Z,13.13
2023-01-04T09:32:32.907Z,13.15
2023-01-04T09:37:34.474Z,13.24
2023-01-04T09:42:44.182Z,13.28
2023-01-04T09:47:54.814Z,13.39
2023-01-04T09:53:07.326Z,13.30
2023-01-04T09:58:35.388Z,13.43
2023-01-04T10:03:39.772Z,13.40
2023-01-04T10:08:44.696Z,13.48
2023-01-04T10:14:06.534Z,13.54
2023-01-04T10:19:36.790Z,13.55
2023-01-04T10:25:08.096Z,13.62
2023-01-04T10:30:18.492Z,13.65
2023-01-04T10:35:25.353Z,13.56
2023-01-04T10:40:29.251Z,13.32
2023-01-04T10:46:04.708Z,13.24
2023-01-04T10:51:10.320Z,12.51
2023-01-04T10:56:25.915Z,12.54
2023-01-04T11:01:53.436Z,12.80
2023-01-04T11:07:06.458Z,12.81
2023-01-04T11:12:13.027Z,12.70
2023-01-04T11:17:14.772Z,12.77
2023-01-04T11:22:36.990Z,12.79
2023-01-04T11:27:49.598Z,12.68
2023-01-04T11:33:00.632Z,12.87
2023-01-04T11:38:11.388Z,13.04
2023-01-04T11:43:21.159Z,13.23
2023-01-04T11:48:43.731Z,13.33
2023-01-04T11:53:46.026Z,13.48
2023-01-04T11:59:11.090Z,13.50
2023-01-04T12:04:21.469Z,13.54
2023-01-04T12:09:23.061Z,13.74
2023-01-04T12:14:24.585Z,13.63
2023-01-04T12:19:26.855Z,13.63
2023-01-04T12:24:33.879Z,13.62
2023-01-04T12:29:43.099Z,13.56
2023-01-04T12:34:46.996Z,13.16
2023-01-04T12:39:48.537Z,13.24
2023-01-04T12:44:50.027Z,13.49
2023-01-04T12:49:57.521Z,13.65
2023-01-04T12:55:01.370Z,13.75
2023-01-04T13:00:13.949Z,13.99
2023-01-04T13:05:54.962Z,13.99
2023-01-04T13:10:43.145Z,14.10
2023-01-04T13:16:03.466Z,14.16
2023-01-04T13:21:25.851Z,14.20
2023-01-04T13:26:42.035Z,14.25
2023-01-04T13:32:03.151Z,14.34
2023-01-04T13:37:12.635Z,14.42
2023-01-04T13:42:25.669Z,14.46
2023-01-04T13:47:29.455Z,14.46
2023-01-04T13:52:55.210Z,14.19
2023-01-04T13:58:01.375Z,14.15
2023-01-04T14:03:15.029Z,14.33
2023-01-04T14:08:36.864Z,14.54
2023-01-04T14:13:38.545Z,14.50
2023-01-04T14:18:40.164Z,14.63
2023-01-04T14:23:41.864Z,14.75
2023-01-04T14:28:49.512Z,14.77
2023-01-04T14:34:07.606Z,14.65
2023-01-04T14:39:12.522Z,14.77
2023-01-04T14:44:22.267Z,14.83
2023-01-04T14:49:24.118Z,14.80
2023-01-04T14:54:27.202Z,14.97
2023-01-04T14:59:28.913Z,15.00
2023-01-04T15:04:30.703Z,14.70
2023-01-04T15:09:32.437Z,14.23
2023-01-04T15:14:34.017Z,14.17
2023-01-04T15:19:38.052Z,14.00
2023-01-04T15:24:40.056Z,13.86
2023-01-04T15:29:41.663Z,13.83
2023-01-04T15:34:46.822Z,13.78
2023-01-04T15:39:48.726Z,13.82
2023-01-04T15:44:50.315Z,13.75
2023-01-04T15:49:51.896Z,13.55
2023-01-04T15:54:53.596Z,13.43
2023-01-04T15:59:55.182Z,13.22
2023-01-04T16:04:56.883Z,13.22
2023-01-04T16:09:58.568Z,13.26
2023-01-04T16:15:00.179Z,13.22
2023-01-04T16:20:02.271Z,13.22
2023-01-04T16:25:12.524Z,13.53
2023-01-04T16:30:14.799Z,13.77
2023-01-04T16:35:16.618Z,13.85
2023-01-04T16:40:18.278Z,13.92
2023-01-04T16:45:19.798Z,14.12
2023-01-04T16:50:21.329Z,14.04
2023-01-04T16:55:24.189Z,14.13
2023-01-04T17:00:26.054Z,14.01
2023-01-04T17:05:27.610Z,13.93
2023-01-04T17:10:29.861Z,13.89
2023-01-04T17:15:42.856Z,13.92
2023-01-04T17:20:52.448Z,13.55
2023-01-04T17:25:55.350Z,13.22
2023-01-04T17:30:57.228Z,13.15
2023-01-04T17:36:05.696Z,13.21
2023-01-04T17:41:13.010Z,13.33
2023-01-04T17:46:22.607Z,13.48
2023-01-04T17:51:25.191Z,13.50
2023-01-04T17:56:28.503Z,13.51
2023-01-04T18:01:30.782Z,13.60
2023-01-04T18:06:35.104Z,13.50
2023-01-04T18:11:36.865Z,13.51
2023-01-04T18:16:38.533Z,13.53
2023-01-04T18:21:40.188Z,13.55
2023-01-04T18:27:10.822Z,13.54
2023-01-04T18:32:03.647Z,13.68
2023-01-04T18:37:05.299Z,13.61
2023-01-04T18:42:06.892Z,13.66
2023-01-04T18:47:08.584Z,13.71
2023-01-04T18:52:10.245Z,13.74
2023-01-04T18:57:15.459Z,13.89
2023-01-04T19:02:20.649Z,13.93
2023-01-04T19:07:22.556Z,14.02
2023-01-04T19:12:24.106Z,14.20
2023-01-04T19:17:25.697Z,14.50
2023-01-04T19:22:27.492Z,14.48
2023-01-04T19:27:29.054Z,14.27
2023-01-04T19:32:33.668Z,14.09
2023-01-04T19:37:35.605Z,14.25
2023-01-04T19:42:37.376Z,14.29
2023-01-04T19:47:39.179Z,14.38
2023-01-04T19:52:40.697Z,14.40
2023-01-04T19:57:42.385Z,14.42
2023-01-04T20:02:44.316Z,14.51
2023-01-04T20:07:46.003Z,14.43
2023-01-04T20:12:47.547Z,14.41
2023-01-04T20:17:49.068Z,14.36
2023-01-04T20:22:50.600Z,14.39
2023-01-04T20:27:52.173Z,14.28
2023-01-04T20:32:53.770Z,14.28
2023-01-04T20:37:55.529Z,14.17
2023-01-04T20:42:57.136Z,14.17
2023-01-04T20:47:58.888Z,14.13
2023-01-04T20:53:00.495Z,14.19
2023-01-04T20:58:02.069Z,14.29
2023-01-04T21:03:05.628Z,14.23
2023-01-04T21:08:10.827Z,14.28
2023-01-04T21:13:12.822Z,14.30
2023-01-04T21:18:14.570Z,14.28
2023-01-04T21:23:21.419Z,14.26
2023-01-04T21:28:23.034Z,14.29
2023-01-04T21:33:24.573Z,14.29
2023-01-04T21:38:26.103Z,14.36
2023-01-04T21:43:27.617Z,14.47
2023-01-04T21:48:29.156Z,14.48
2023-01-04T21:53:32.631Z,14.44
2023-01-04T21:58:34.595Z,14.20
2023-01-04T22:03:36.151Z,14.22
2023-01-04T22:08:39.722Z,14.19
2023-01-04T22:13:41.648Z,14.16
2023-01-04T22:18:50.229Z,14.14
2023-01-04T22:23:51.936Z,14.16
2023-01-04T22:28:53.471Z,14.19
2023-01-04T22:33:55.194Z,14.18
2023-01-04T22:38:57.425Z,14.21
2023-01-04T22:44:01.362Z,14.15
2023-01-04T22:49:03.446Z,14.03
2023-01-04T22:54:05.044Z,13.92
2023-01-04T22:59:06.576Z,13.80
2023-01-04T23:04:08.147Z,13.71
2023-01-04T23:09:13.184Z,13.70
2023-01-04T23:14:16.984Z,13.54
2023-01-04T23:19:18.526Z,13.53
2023-01-04T23:24:20.325Z,13.67
2023-01-04T23:29:21.884Z,13.50
2023-01-04T23:34:23.413Z,13.52
2023-01-04T23:39:25.012Z,13.59
2023-01-04T23:44:29.278Z,13.61
2023-01-04T23:49:32.830Z,13.53
2023-01-04T23:54:34.777Z,13.48
2023-01-04T23:59:36.674Z,13.55
